Hlavní strana
METAR-TAF:

METAR-TAF

Letiště :

Jacksonville, Florida, Spojené státy americké

zeměpisná šířka: 30-13-07N, zeměpisná délka: 081-52-36W, výška: 25 m

Aktuální stav počasí

Zpráva byla vytvořena před 1 hodinou a 6 minutami, v 10:50 UTC
Bezvětří
Teplota 14°C
Vlhkost vzduchu 94%
Tlak 1021 hPa
Viditelnost: 16.1 km
Jasno

METAR: KVQQ 241050Z 00000KT 10SM CLR 14/13 A3015

Čas: 07:56 (11:56 UTC)

Předpověď počasí

Zpráva byla vytvořena před 36 minutami, v 11:20 UTC
Předpověď platná od 24 v 12 UTC do 25 v 12 UTC
Východoseverovýchodní vítr 3 kt
Viditelnost: 10 km
Skoro jasno ve výšce 2500 ft
Od 24 v 2000 UTC
Východní vítr 8 kt
Viditelnost: 10 km
Polojasno ve výšce 4000 ft
Polojasno ve výšce 25000 ft
Od 25 v 0000 UTC
Jihovýchodní vítr 5 kt
Viditelnost: 10 km
Skoro jasno ve výšce 25000 ft
Od 25 v 0500 UTC
Severní vítr kt
Viditelnost: 10 km
Skoro jasno ve výšce 6000 ft

TAF: KVQQ 241120Z 2412/2512 06003KT P6SM FEW025 FM242000 09008KT P6SM SCT040 SCT250 FM250000 13005KT P6SM FEW250 FM250500 00000KT P6SM FEW060

Stav a předpovědi počasí z více než 4 000 letišť (zprávy METAR a TAF).

Červené a žluté tečky na mapě představují dostupné meteorologické stanice.

Když kurzor umístíte na tečku, zobrazí se název stanice.

Pak kliknutím zobrazíte stav a předpověď počasí.

Chcete-li změnit mapu, kliknutím na zelené tlačítko se znaménkem +mapu přiblížíte, kliknutím na zelené tlačítko se znaménkem – mapu oddálíte a kliknutím na zelené šipky přejdete na sousední mapy.


METAR-TAF: